Time;durP1;ratioP1;P1;durP2;ratioP2;P2;SDS_P1;SDS_P2;PMS_P1;PMS_P2;Temp;Humidity;BMP_temperature;BMP_pressure;BME280_temperature;BME280_humidity;BME280_pressure;Samples;Min_cycle;Max_cycle;Signal;HPM_P1;HPM_P2
2024/01/19 00:00:30;;;;;;;9.60;5.22;;;;;;;3.96;57.67;101368.44;4947972;28;97043;-83
2024/01/19 00:02:56;;;;;;;11.23;5.22;;;;;;;3.95;57.71;101363.19;4941643;28;98949;-83
2024/01/19 00:05:23;;;;;;;10.40;4.88;;;;;;;3.96;57.64;101372.91;4949185;28;100383;-82
2024/01/19 00:07:50;;;;;;;9.20;4.50;;;;;;;3.95;57.69;101361.41;4965946;28;97722;-83
2024/01/19 00:10:16;;;;;;;10.10;4.25;;;;;;;3.96;57.84;101368.44;4949218;28;98485;-83
2024/01/19 00:12:44;;;;;;;6.60;4.18;;;;;;;3.99;57.85;101375.44;4949085;28;97396;-83
2024/01/19 00:15:11;;;;;;;8.70;4.05;;;;;;;4.01;57.82;101386.88;4966205;28;97650;-83
2024/01/19 00:17:37;;;;;;;9.32;3.95;;;;;;;4.03;57.80;101395.66;4961719;28;98109;-83
2024/01/19 00:20:08;;;;;;;5.35;3.08;;;;;;;4.04;58.12;101387.66;4945079;28;98276;-83
2024/01/19 00:22:35;;;;;;;7.47;3.17;;;;;;;4.07;57.82;101381.34;4961335;28;97397;-83
2024/01/19 00:25:02;;;;;;;5.25;3.30;;;;;;;4.11;58.07;101388.28;4943321;28;100609;-82
2024/01/19 00:27:29;;;;;;;5.50;3.10;;;;;;;4.13;57.91;101391.75;4946981;28;98294;-83
2024/01/19 00:29:56;;;;;;;6.10;2.60;;;;;;;4.18;58.10;101397.78;4961954;28;97425;-83
2024/01/19 00:32:23;;;;;;;5.82;2.70;;;;;;;4.19;58.08;101410.16;4961905;28;97260;-83
2024/01/19 00:34:50;;;;;;;5.05;3.38;;;;;;;4.20;58.07;101403.91;4944121;28;100350;-84
2024/01/19 00:37:16;;;;;;;4.93;2.78;;;;;;;4.25;58.14;101388.66;4946666;28;98888;-83
2024/01/19 00:39:44;;;;;;;5.32;2.60;;;;;;;4.28;58.05;101385.03;4941702;28;98283;-84
2024/01/19 00:42:11;;;;;;;7.32;3.10;;;;;;;4.31;58.24;101383.13;4960007;28;98256;-82
2024/01/19 00:44:37;;;;;;;4.75;2.63;;;;;;;4.37;58.37;101382.91;4951576;28;98396;-84
2024/01/19 00:47:04;;;;;;;5.15;2.88;;;;;;;4.41;58.51;101384.50;4963151;28;99850;-84
2024/01/19 00:49:31;;;;;;;6.25;2.83;;;;;;;4.46;58.57;101401.19;4958681;28;96801;-84
2024/01/19 00:51:58;;;;;;;9.52;3.50;;;;;;;4.50;58.53;101409.06;4928699;28;97293;-84
2024/01/19 00:54:24;;;;;;;5.72;3.38;;;;;;;4.53;58.51;101412.47;4943054;28;99350;-83
2024/01/19 00:56:51;;;;;;;6.07;2.83;;;;;;;4.56;58.37;101398.19;4947234;28;99428;-84
2024/01/19 00:59:18;;;;;;;3.10;2.13;;;;;;;4.58;58.50;101389.25;4965690;28;97525;-85
2024/01/19 01:01:44;;;;;;;2.85;1.88;;;;;;;4.60;58.50;101382.06;4927022;28;97172;-84
2024/01/19 01:04:12;;;;;;;3.83;1.98;;;;;;;4.61;58.55;101380.28;4953847;28;98195;-84
2024/01/19 01:06:38;;;;;;;3.83;1.63;;;;;;;4.61;58.57;101389.13;4945584;28;98442;-84
2024/01/19 01:09:05;;;;;;;2.78;1.40;;;;;;;4.61;58.51;101390.91;4948982;28;97300;-84
2024/01/19 01:11:32;;;;;;;2.28;1.20;;;;;;;4.62;58.56;101392.66;4947768;28;98018;-83
2024/01/19 01:13:59;;;;;;;2.60;1.20;;;;;;;4.63;58.41;101389.06;4944997;28;99028;-83
2024/01/19 01:16:29;;;;;;;1.65;1.02;;;;;;;4.64;58.50;101393.47;4970133;28;100384;-83
2024/01/19 01:18:55;;;;;;;3.10;1.10;;;;;;;4.66;58.52;101402.25;4957507;28;98072;-84
2024/01/19 01:21:22;;;;;;;3.22;1.10;;;;;;;4.66;58.36;101402.25;4972870;28;98084;-83
2024/01/19 01:23:49;;;;;;;1.85;1.20;;;;;;;4.67;58.46;101411.97;4971503;28;99704;-83
2024/01/19 01:26:16;;;;;;;1.40;1.10;;;;;;;4.67;58.62;101411.97;4961107;28;100523;-83
2024/01/19 01:28:44;;;;;;;2.22;1.00;;;;;;;4.67;58.61;101418.16;4949993;28;97432;-83
2024/01/19 01:31:10;;;;;;;3.45;1.65;;;;;;;4.66;58.45;101420.88;4963640;28;97114;-84
2024/01/19 01:33:37;;;;;;;1.73;1.25;;;;;;;4.65;58.53;101427.13;4939577;28;98805;-82
2024/01/19 01:36:04;;;;;;;5.68;1.40;;;;;;;4.63;58.48;101434.28;4945637;28;98235;-83
2024/01/19 01:38:32;;;;;;;2.47;2.00;;;;;;;4.63;58.38;101434.28;4943337;28;97329;-83
2024/01/19 01:41:00;;;;;;;4.47;1.80;;;;;;;4.63;58.69;101439.59;4940817;28;96873;-83
2024/01/19 01:43:27;;;;;;;3.75;2.25;;;;;;;4.62;58.46;101445.84;4948453;28;98374;-83
2024/01/19 01:45:54;;;;;;;3.95;2.20;;;;;;;4.61;58.65;101444.13;4964154;28;100478;-83
2024/01/19 01:48:23;;;;;;;3.15;2.10;;;;;;;4.59;58.51;101444.19;4954584;28;97003;-84
2024/01/19 01:50:52;;;;;;;3.80;2.15;;;;;;;4.58;58.41;101441.56;4964225;28;97158;-83
2024/01/19 01:53:20;;;;;;;4.80;1.90;;;;;;;4.58;58.75;101445.09;4938649;28;98208;-84
2024/01/19 01:55:47;;;;;;;4.32;2.42;;;;;;;4.57;58.53;101446.03;4919756;28;98335;-83
2024/01/19 01:58:16;;;;;;;4.20;2.38;;;;;;;4.56;58.69;101451.41;4925838;28;97271;-84
2024/01/19 02:00:45;;;;;;;5.43;2.35;;;;;;;4.54;58.64;101448.78;4943885;28;97745;-83
2024/01/19 02:03:12;;;;;;;4.53;2.38;;;;;;;4.54;58.57;101454.13;4925580;28;100361;-83
2024/01/19 02:05:41;;;;;;;4.53;2.13;;;;;;;4.50;58.73;101449.84;4961159;28;97887;-84
2024/01/19 02:08:09;;;;;;;7.20;2.55;;;;;;;4.51;58.57;101451.56;4945464;28;96830;-83
2024/01/19 02:10:36;;;;;;;5.95;2.60;;;;;;;4.50;58.54;101454.28;4936627;28;97278;-84
2024/01/19 02:13:03;;;;;;;5.93;2.90;;;;;;;4.49;58.62;101453.41;4943880;28;101088;-83
2024/01/19 02:15:30;;;;;;;5.47;2.63;;;;;;;4.46;58.54;101454.41;4957445;28;99661;-83
2024/01/19 02:17:57;;;;;;;5.93;2.65;;;;;;;4.44;58.68;101463.31;4940114;28;96862;-84
2024/01/19 02:20:24;;;;;;;3.83;2.47;;;;;;;4.41;58.69;101469.63;4943848;28;98354;-84
2024/01/19 02:22:52;;;;;;;6.53;2.42;;;;;;;4.40;58.77;101459.03;4946552;28;98369;-84
2024/01/19 02:25:19;;;;;;;2.45;2.05;;;;;;;4.38;58.81;101469.72;4943757;28;100527;-84
2024/01/19 02:27:46;;;;;;;4.07;2.30;;;;;;;4.38;58.84;101474.16;4944258;28;97391;-82
2024/01/19 02:30:14;;;;;;;11.88;2.90;;;;;;;4.37;58.93;101475.97;4949923;28;98088;-84
2024/01/19 02:32:40;;;;;;;4.00;2.95;;;;;;;4.35;59.13;101483.13;4947693;28;97122;-84
2024/01/19 02:35:07;;;;;;;6.13;2.92;;;;;;;4.35;58.97;101483.13;4966383;28;100552;-84
2024/01/19 02:37:34;;;;;;;4.55;2.63;;;;;;;4.35;59.13;101477.81;4926876;28;97258;-84
2024/01/19 02:40:02;;;;;;;4.43;3.03;;;;;;;4.34;59.16;101480.53;4950875;28;96994;-83
2024/01/19 02:42:32;;;;;;;5.65;3.40;;;;;;;4.33;59.16;101484.09;4946951;28;98091;-83
2024/01/19 02:44:59;;;;;;;4.55;3.13;;;;;;;4.32;59.10;101487.69;4945571;28;98330;-84
2024/01/19 02:47:30;;;;;;;6.00;3.55;;;;;;;4.30;59.15;101481.56;4942670;28;98033;-83
2024/01/19 02:49:59;;;;;;;4.53;3.30;;;;;;;4.28;59.22;101483.41;4960599;28;97635;-83
2024/01/19 02:52:26;;;;;;;5.57;3.72;;;;;;;4.26;59.22;101488.75;4942593;28;98232;-83
2024/01/19 02:54:53;;;;;;;4.90;3.40;;;;;;;4.25;59.03;101491.47;4940608;28;100608;-84
2024/01/19 02:57:20;;;;;;;8.30;4.00;;;;;;;4.23;59.29;101498.63;4944369;28;97371;-84
2024/01/19 02:59:46;;;;;;;5.60;4.07;;;;;;;4.21;59.16;101504.00;4939395;28;97203;-83
2024/01/19 03:02:14;;;;;;;5.85;3.60;;;;;;;4.19;59.16;101497.88;4927518;28;101208;-83
2024/01/19 03:04:41;;;;;;;7.72;4.07;;;;;;;4.19;59.09;101494.34;4961976;28;98272;-84
2024/01/19 03:07:07;;;;;;;6.72;4.28;;;;;;;4.19;59.24;101489.91;4943611;28;97397;-84
2024/01/19 03:09:34;;;;;;;7.32;4.57;;;;;;;4.19;59.21;101497.00;4958330;28;96970;-83
2024/01/19 03:12:01;;;;;;;7.32;4.18;;;;;;;4.20;59.23;101499.63;4921736;28;100381;-83
2024/01/19 03:14:28;;;;;;;6.05;4.57;;;;;;;4.20;59.21;101496.94;4945885;28;99936;-84
2024/01/19 03:16:54;;;;;;;8.52;4.70;;;;;;;4.20;59.11;101496.94;4944515;28;97184;-83
2024/01/19 03:19:21;;;;;;;8.63;4.93;;;;;;;4.18;59.30;101509.44;4961970;28;97226;-84
2024/01/19 03:21:48;;;;;;;8.77;4.82;;;;;;;4.19;59.14;101511.16;4945344;28;99145;-85
2024/01/19 03:24:14;;;;;;;8.57;4.78;;;;;;;4.19;59.25;101516.50;4936966;28;98530;-83
2024/01/19 03:26:42;;;;;;;7.30;4.65;;;;;;;4.18;59.23;101520.06;4943653;28;97501;-83
2024/01/19 03:29:09;;;;;;;7.93;4.65;;;;;;;4.17;59.03;101518.31;4927014;28;97556;-83
2024/01/19 03:31:36;;;;;;;8.35;5.25;;;;;;;4.14;58.93;101515.78;4944880;28;98275;-83
2024/01/19 03:34:03;;;;;;;8.55;5.05;;;;;;;4.12;59.20;101520.28;4947200;28;98282;-83
2024/01/19 03:36:30;;;;;;;7.00;5.38;;;;;;;4.08;58.96;101522.16;4953522;28;97196;-83
2024/01/19 03:38:57;;;;;;;11.90;5.65;;;;;;;4.06;59.07;101523.13;4939322;28;98791;-82
2024/01/19 03:41:23;;;;;;;6.63;5.03;;;;;;;4.04;59.14;101527.63;4959278;28;98349;-83
2024/01/19 03:43:50;;;;;;;6.47;5.10;;;;;;;4.01;59.16;101536.59;4945753;28;97753;-84
2024/01/19 03:46:17;;;;;;;7.55;5.07;;;;;;;4.00;59.27;101534.84;4943764;28;96885;-85
2024/01/19 03:48:44;;;;;;;7.93;4.90;;;;;;;3.99;59.21;101526.91;4939770;28;98348;-84
2024/01/19 03:51:11;;;;;;;7.53;4.93;;;;;;;3.97;59.18;101529.63;4940963;28;98131;-84
2024/01/19 03:53:42;;;;;;;8.07;4.82;;;;;;;3.96;59.33;101532.34;4922350;28;100413;-84
2024/01/19 03:56:10;;;;;;;9.50;4.97;;;;;;;3.93;59.07;101538.63;4942748;28;97169;-83
2024/01/19 03:58:37;;;;;;;11.60;4.93;;;;;;;3.91;59.12;101536.94;4940188;28;96817;-84
2024/01/19 04:01:05;;;;;;;10.65;5.28;;;;;;;3.87;59.15;101537.94;4946964;28;98751;-83
2024/01/19 04:03:32;;;;;;;8.00;4.47;;;;;;;3.86;59.33;101542.41;4936297;28;97852;-84
2024/01/19 04:06:02;;;;;;;8.05;4.70;;;;;;;3.83;59.08;101546.03;4943332;28;97501;-83
2024/01/19 04:08:29;;;;;;;9.18;5.00;;;;;;;3.80;59.08;101547.91;4932993;28;97082;-84
2024/01/19 04:10:56;;;;;;;7.10;4.85;;;;;;;3.78;59.31;101544.44;4940339;28;98831;-83
2024/01/19 04:13:23;;;;;;;6.50;4.65;;;;;;;3.79;59.33;101552.34;4940110;28;100026;-83
2024/01/19 04:15:49;;;;;;;13.55;4.97;;;;;;;3.79;59.19;101555.00;4941171;28;97699;-83
2024/01/19 04:18:16;;;;;;;9.73;5.28;;;;;;;3.80;59.13;101559.41;4937850;28;98198;-83
2024/01/19 04:20:44;;;;;;;7.68;4.95;;;;;;;3.81;59.36;101565.59;4943140;28;101042;-84
2024/01/19 04:23:11;;;;;;;7.28;5.38;;;;;;;3.80;59.16;101563.84;4946577;28;98499;-83
2024/01/19 04:25:37;;;;;;;8.60;6.13;;;;;;;3.81;59.20;101562.94;4931294;28;97435;-84
2024/01/19 04:28:04;;;;;;;10.32;5.18;;;;;;;3.80;59.32;101570.03;4944415;28;97366;-84
2024/01/19 04:30:31;;;;;;;7.40;5.05;;;;;;;3.80;59.11;101564.72;4946136;28;100460;-83
2024/01/19 04:32:58;;;;;;;8.65;5.10;;;;;;;3.82;59.24;101576.16;4939453;28;98053;-84
2024/01/19 04:35:24;;;;;;;8.93;4.93;;;;;;;3.83;59.33;101571.72;4959176;28;97085;-83
2024/01/19 04:37:51;;;;;;;8.52;4.63;;;;;;;3.87;59.16;101583.13;4948353;28;96922;-84
2024/01/19 04:40:21;;;;;;;7.65;4.78;;;;;;;3.88;59.32;101591.03;4940091;28;100571;-84
2024/01/19 04:42:47;;;;;;;8.45;4.82;;;;;;;3.93;59.59;101590.91;4945252;28;98303;-84
2024/01/19 04:45:14;;;;;;;14.40;5.63;;;;;;;3.94;59.24;101595.28;4925121;28;100996;-84
2024/01/19 04:47:41;;;;;;;9.77;5.05;;;;;;;3.95;59.25;101599.69;4918482;28;96968;-83
2024/01/19 04:50:08;;;;;;;9.23;5.15;;;;;;;3.93;59.24;101614.81;4944143;28;98701;-83
2024/01/19 04:52:34;;;;;;;8.77;5.13;;;;;;;3.88;59.22;101614.09;4936292;28;97874;-83
2024/01/19 04:55:02;;;;;;;8.75;4.85;;;;;;;3.80;59.20;101620.50;4948477;28;96784;-84
2024/01/19 04:57:29;;;;;;;11.38;5.00;;;;;;;3.75;59.19;101627.75;4944159;28;97112;-84
2024/01/19 04:59:55;;;;;;;10.60;4.70;;;;;;;3.73;59.13;101642.00;4924991;28;100021;-82
2024/01/19 05:02:23;;;;;;;9.70;5.20;;;;;;;3.71;59.23;101652.63;4941848;28;100471;-83
2024/01/19 05:04:50;;;;;;;7.78;5.10;;;;;;;3.72;59.38;101664.16;4943299;28;98189;-82
2024/01/19 05:07:16;;;;;;;9.32;4.57;;;;;;;3.72;59.47;101673.00;4921869;28;97444;-83
2024/01/19 05:09:45;;;;;;;7.88;5.43;;;;;;;3.74;59.36;101668.50;4921045;28;98556;-83
2024/01/19 05:12:11;;;;;;;7.35;4.55;;;;;;;3.76;59.47;101666.69;4941386;28;97923;-83
2024/01/19 05:14:38;;;;;;;6.78;4.20;;;;;;;3.76;59.34;101661.38;4962429;28;99328;-82
2024/01/19 05:17:05;;;;;;;7.53;4.80;;;;;;;3.79;59.27;101663.94;4937182;28;97161;-82
2024/01/19 05:19:32;;;;;;;5.45;3.97;;;;;;;3.81;59.39;101663.88;4936518;28;100083;-82
2024/01/19 05:21:59;;;;;;;5.05;3.20;;;;;;;3.85;59.44;101656.69;4948255;28;102371;-82
2024/01/19 05:24:26;;;;;;;3.67;2.80;;;;;;;3.89;59.51;101663.66;4937982;28;98134;-81
2024/01/19 05:26:52;;;;;;;5.93;2.90;;;;;;;3.90;59.43;101668.06;4920735;28;98053;-81
2024/01/19 05:29:19;;;;;;;6.47;2.85;;;;;;;3.93;59.59;101670.63;4933916;28;97860;-82
2024/01/19 05:31:46;;;;;;;3.53;2.50;;;;;;;3.94;59.56;101673.22;4934234;28;100785;-82
2024/01/19 05:34:14;;;;;;;3.90;2.58;;;;;;;3.96;59.50;101671.41;4935897;28;97264;-82
2024/01/19 05:36:42;;;;;;;4.93;2.92;;;;;;;3.98;59.70;101674.88;4957590;28;97313;-82
2024/01/19 05:39:09;;;;;;;4.88;2.60;;;;;;;4.02;59.59;101679.19;4928772;28;98916;-83
2024/01/19 05:41:36;;;;;;;5.07;2.60;;;;;;;4.03;59.72;101674.72;4946318;28;98399;-83
2024/01/19 05:44:03;;;;;;;5.80;2.63;;;;;;;4.04;59.58;101682.66;4964413;28;97407;-83
2024/01/19 05:46:30;;;;;;;6.05;2.78;;;;;;;4.05;59.63;101675.56;4941653;28;96953;-83
2024/01/19 05:48:57;;;;;;;4.20;2.40;;;;;;;4.03;59.65;101680.06;4939422;28;98351;-82
2024/01/19 05:51:24;;;;;;;5.90;3.33;;;;;;;4.02;59.74;101684.50;4943399;28;100430;-83
2024/01/19 05:53:51;;;;;;;2.75;2.30;;;;;;;4.04;59.74;101695.06;4947283;28;96972;-83
2024/01/19 05:56:18;;;;;;;3.58;2.85;;;;;;;4.03;59.62;101701.31;4941181;28;96855;-83
2024/01/19 05:58:44;;;;;;;3.80;2.72;;;;;;;4.03;59.74;101703.97;4935579;28;99734;-83
2024/01/19 06:01:11;;;;;;;4.30;2.53;;;;;;;4.05;59.60;101705.66;4932880;28;98544;-83
2024/01/19 06:03:38;;;;;;;4.63;2.65;;;;;;;4.03;59.73;101707.50;4951574;28;97420;-83
2024/01/19 06:06:05;;;;;;;4.00;2.85;;;;;;;4.04;59.57;101719.00;4958138;28;97461;-82
2024/01/19 06:08:32;;;;;;;4.38;2.53;;;;;;;4.02;59.64;101718.19;4947422;28;97513;-83
2024/01/19 06:10:59;;;;;;;6.10;3.58;;;;;;;4.00;59.42;101726.19;4928136;28;98422;-83
2024/01/19 06:13:26;;;;;;;4.38;2.88;;;;;;;3.98;59.29;101735.13;4945188;28;97328;-83
2024/01/19 06:15:53;;;;;;;4.22;3.15;;;;;;;3.93;59.56;101747.69;4924915;28;99341;-83
2024/01/19 06:18:19;;;;;;;7.63;3.40;;;;;;;3.89;59.57;101751.34;4959413;28;98811;-82
2024/01/19 06:20:46;;;;;;;7.30;4.35;;;;;;;3.84;59.41;101751.47;4944634;28;100359;-83
2024/01/19 06:23:14;;;;;;;10.98;4.90;;;;;;;3.80;59.59;101756.00;4943400;28;97423;-82
2024/01/19 06:25:41;;;;;;;13.45;6.88;;;;;;;3.78;59.56;101763.16;4929948;28;97494;-83
2024/01/19 06:28:12;;;;;;;11.68;6.05;;;;;;;3.75;59.59;101767.69;4970840;28;98328;-82
2024/01/19 06:30:39;;;;;;;12.15;7.18;;;;;;;3.70;59.51;101775.75;4934809;28;97530;-83
2024/01/19 06:33:05;;;;;;;15.50;7.90;;;;;;;3.68;59.43;101779.34;4954199;28;97324;-83
2024/01/19 06:35:32;;;;;;;13.77;8.07;;;;;;;3.65;59.63;101784.75;4941580;28;97203;-83
2024/01/19 06:37:59;;;;;;;9.68;7.95;;;;;;;3.63;59.66;101789.25;4938462;28;98034;-82
2024/01/19 06:40:26;;;;;;;10.00;7.38;;;;;;;3.60;59.73;101795.50;4942957;28;97803;-82
2024/01/19 06:42:53;;;;;;;11.55;8.00;;;;;;;3.59;59.71;101792.91;4955847;28;96925;-81
2024/01/19 06:45:19;;;;;;;11.25;8.13;;;;;;;3.60;59.50;101797.28;4946874;28;96990;-83
2024/01/19 06:47:46;;;;;;;10.77;7.85;;;;;;;3.56;59.79;101793.84;4941350;28;98547;-83
2024/01/19 06:50:13;;;;;;;14.55;8.43;;;;;;;3.56;59.73;101796.50;4943701;28;101105;-83
2024/01/19 06:52:40;;;;;;;11.07;8.32;;;;;;;3.54;59.65;101800.97;4961446;28;97363;-82
2024/01/19 06:55:07;;;;;;;11.65;9.05;;;;;;;3.51;60.15;101804.59;4944841;28;97537;-82
2024/01/19 06:57:34;;;;;;;10.15;7.72;;;;;;;3.49;59.80;101809.06;4936114;28;98549;-83
2024/01/19 07:00:00;;;;;;;11.18;8.25;;;;;;;3.46;59.75;101811.81;4943469;28;101414;-83
2024/01/19 07:02:27;;;;;;;11.60;8.25;;;;;;;3.46;59.85;101816.25;4945257;28;97254;-82
2024/01/19 07:04:54;;;;;;;13.13;9.57;;;;;;;3.46;59.81;101826.88;4949391;28;97306;-82
2024/01/19 07:07:20;;;;;;;14.80;8.88;;;;;;;3.44;59.69;101820.72;4950245;28;100513;-82
2024/01/19 07:09:47;;;;;;;13.75;8.85;;;;;;;3.42;59.91;101823.44;4965145;28;98002;-82
2024/01/19 07:12:16;;;;;;;14.18;9.20;;;;;;;3.39;59.82;101827.94;4932159;28;99973;-82
2024/01/19 07:14:44;;;;;;;15.15;10.10;;;;;;;3.36;59.94;101831.56;4947354;28;98217;-82
2024/01/19 07:17:11;;;;;;;14.68;9.70;;;;;;;3.34;59.96;101835.16;4952810;28;97872;-82
2024/01/19 07:19:42;;;;;;;18.38;9.55;;;;;;;3.32;59.80;101837.84;4933261;28;97653;-82
2024/01/19 07:22:10;;;;;;;11.38;9.52;;;;;;;3.30;59.74;101842.31;4945410;28;97481;-82
2024/01/19 07:24:36;;;;;;;13.88;9.75;;;;;;;3.29;59.80;101847.69;4942922;28;97583;-82
2024/01/19 07:27:04;;;;;;;15.25;9.75;;;;;;;3.29;59.87;101851.19;4948402;28;98134;-82
2024/01/19 07:29:31;;;;;;;14.82;9.23;;;;;;;3.27;59.96;101852.16;4938078;28;98478;-82
2024/01/19 07:31:59;;;;;;;12.63;9.30;;;;;;;3.29;59.79;101852.97;4949049;28;98004;-82
2024/01/19 07:34:26;;;;;;;16.92;10.65;;;;;;;3.28;59.84;101853.91;4924329;28;97401;-83
2024/01/19 07:36:53;;;;;;;13.88;10.10;;;;;;;3.26;59.99;101851.28;4945501;28;97927;-83
2024/01/19 07:39:23;;;;;;;18.80;11.32;;;;;;;3.24;59.89;101855.75;4955430;28;98302;-83
2024/01/19 07:41:53;;;;;;;17.48;11.68;;;;;;;3.25;59.86;101868.13;4927433;28;97434;-82
2024/01/19 07:44:20;;;;;;;19.90;11.65;;;;;;;3.24;59.97;101868.16;4943187;28;97331;-83
2024/01/19 07:46:48;;;;;;;14.93;11.25;;;;;;;3.22;59.81;101868.19;4936644;28;100244;-82
2024/01/19 07:49:20;;;;;;;19.17;11.25;;;;;;;3.22;59.89;101876.16;4930550;28;101087;-83
2024/01/19 07:51:48;;;;;;;16.73;11.13;;;;;;;3.19;59.95;101876.22;4961625;28;99433;-83
2024/01/19 07:54:17;;;;;;;14.32;10.55;;;;;;;3.15;59.77;101875.44;4944545;28;97523;-82
2024/01/19 07:56:44;;;;;;;20.20;11.50;;;;;;;3.13;59.87;101884.34;4955192;28;100459;-83
2024/01/19 07:59:11;;;;;;;14.88;10.93;;;;;;;3.09;59.87;101882.66;4951024;28;98406;-83
2024/01/19 08:01:41;;;;;;;15.10;10.98;;;;;;;3.10;59.76;101892.38;4953589;28;98901;-82
2024/01/19 08:04:08;;;;;;;18.88;11.35;;;;;;;3.10;60.17;101893.25;4960967;28;96991;-83
2024/01/19 08:06:35;;;;;;;18.27;10.15;;;;;;;3.13;59.98;101901.13;4945858;28;97705;-83
2024/01/19 08:09:02;;;;;;;15.60;11.68;;;;;;;3.13;59.88;101903.78;4949301;28;97511;-83
2024/01/19 08:11:29;;;;;;;18.52;12.63;;;;;;;3.13;60.00;101910.88;4947495;28;96976;-83
2024/01/19 08:13:56;;;;;;;21.05;12.77;;;;;;;3.13;59.90;101917.06;4945047;28;97354;-83
2024/01/19 08:16:23;;;;;;;20.42;11.68;;;;;;;3.10;60.06;101919.78;4957825;28;97351;-83
2024/01/19 08:18:49;;;;;;;16.58;11.05;;;;;;;3.09;60.03;101918.03;4948644;28;98063;-83
2024/01/19 08:21:16;;;;;;;17.40;11.77;;;;;;;3.10;59.74;101919.78;4948697;28;97494;-83
2024/01/19 08:23:43;;;;;;;14.50;10.60;;;;;;;3.12;60.13;101933.03;4948479;28;97149;-83
2024/01/19 08:26:10;;;;;;;19.35;11.43;;;;;;;3.13;60.12;101922.38;4941440;28;100209;-83
2024/01/19 08:28:45;;;;;;;16.30;11.00;;;;;;;3.16;60.18;101929.38;4948571;28;96904;-83
2024/01/19 08:31:13;;;;;;;17.83;10.75;;;;;;;3.20;60.04;101925.75;4944327;28;97356;-83
2024/01/19 08:33:40;;;;;;;15.25;11.60;;;;;;;3.23;60.27;101928.34;4945856;28;97296;-83
2024/01/19 08:36:07;;;;;;;21.77;12.45;;;;;;;3.26;60.25;101932.69;4930930;28;100466;-83
2024/01/19 08:38:34;;;;;;;16.85;11.88;;;;;;;3.30;60.31;101932.59;4945120;28;99934;-83
2024/01/19 08:41:01;;;;;;;21.98;11.60;;;;;;;3.33;60.16;101940.47;4959828;28;97270;-82
2024/01/19 08:43:28;;;;;;;21.55;11.60;;;;;;;3.34;60.13;101939.56;4946296;28;97628;-82
2024/01/19 08:45:54;;;;;;;18.73;11.73;;;;;;;3.34;60.43;101939.56;4946911;28;98336;-83
2024/01/19 08:48:21;;;;;;;19.25;12.20;;;;;;;3.38;60.21;101941.25;4961627;28;99955;-83
2024/01/19 08:50:48;;;;;;;20.10;12.73;;;;;;;3.41;60.34;101945.63;4972379;28;97238;-83
2024/01/19 08:53:15;;;;;;;18.92;12.73;;;;;;;3.43;60.29;101942.00;4945366;28;97271;-83
2024/01/19 08:55:42;;;;;;;21.35;12.20;;;;;;;3.45;60.31;101949.94;4960599;28;100153;-82
2024/01/19 08:58:10;;;;;;;18.00;12.43;;;;;;;3.49;60.38;101957.78;4945993;28;97566;-83
2024/01/19 09:00:36;;;;;;;20.13;13.10;;;;;;;3.51;60.29;101955.09;4948122;28;97451;-83
2024/01/19 09:03:04;;;;;;;20.00;12.82;;;;;;;3.52;60.26;101956.84;4949393;28;98381;-83
2024/01/19 09:05:30;;;;;;;17.85;12.02;;;;;;;3.53;60.40;101950.63;4955718;28;97340;-83
2024/01/19 09:07:58;;;;;;;21.17;12.30;;;;;;;3.55;60.41;101961.22;4948587;28;98309;-82
2024/01/19 09:10:25;;;;;;;23.65;13.77;;;;;;;3.56;60.47;101957.66;4933797;28;97453;-82
2024/01/19 09:12:51;;;;;;;24.77;13.82;;;;;;;3.55;60.40;101964.75;4946920;28;97377;-83
2024/01/19 09:15:18;;;;;;;22.13;14.73;;;;;;;3.59;60.29;101976.16;4942055;28;100398;-83
2024/01/19 09:17:45;;;;;;;20.90;14.82;;;;;;;3.56;60.33;101974.47;4963157;28;98360;-83
2024/01/19 09:20:12;;;;;;;22.85;13.68;;;;;;;3.58;60.43;101982.38;4927578;28;97122;-83
2024/01/19 09:22:39;;;;;;;25.65;14.80;;;;;;;3.56;60.61;101979.75;4945859;28;97367;-83
2024/01/19 09:25:06;;;;;;;21.98;15.02;;;;;;;3.58;60.53;101991.22;4942133;28;100330;-82
2024/01/19 09:27:34;;;;;;;22.08;14.50;;;;;;;3.61;60.34;101983.19;4944252;28;100495;-83
2024/01/19 09:30:01;;;;;;;20.08;14.77;;;;;;;3.62;60.41;101984.94;4941362;28;97600;-83
2024/01/19 09:32:28;;;;;;;20.75;14.93;;;;;;;3.64;60.44;101988.41;4946268;28;97541;-83
2024/01/19 09:34:55;;;;;;;20.90;15.02;;;;;;;3.64;60.52;101993.72;4945595;28;98431;-83
2024/01/19 09:37:22;;;;;;;23.35;14.80;;;;;;;3.67;60.68;101992.78;4950067;28;98745;-83
2024/01/19 09:39:48;;;;;;;20.80;15.48;;;;;;;3.66;60.62;101996.34;4962281;28;97975;-82
2024/01/19 09:42:31;;;;;;;22.73;14.82;;;;;;;3.70;60.53;102004.22;4936652;28;97545;-82
2024/01/19 09:45:04;;;;;;;23.17;14.13;;;;;;;3.74;60.63;102008.56;4938601;28;100460;-82
2024/01/19 09:47:55;;;;;;;21.48;14.77;;;;;;;3.77;60.56;102013.81;4944431;28;98632;-82
2024/01/19 09:50:26;;;;;;;24.85;15.90;;;;;;;3.78;60.59;102022.66;4945833;28;96816;-83
2024/01/19 09:53:00;;;;;;;30.27;15.52;;;;;;;3.79;60.66;102025.28;4945341;28;97046;-83
2024/01/19 09:55:28;;;;;;;23.80;15.05;;;;;;;3.81;60.37;102018.16;4932337;28;100288;-82
2024/01/19 09:57:56;;;;;;;19.83;14.30;;;;;;;3.84;60.70;102027.81;4945985;28;98030;-83
2024/01/19 10:00:23;;;;;;;22.40;14.85;;;;;;;3.88;60.48;102036.59;4946636;28;97593;-83
2024/01/19 10:02:52;;;;;;;23.35;15.68;;;;;;;3.90;60.46;102040.09;4946827;28;97454;-82
2024/01/19 10:05:20;;;;;;;21.98;14.98;;;;;;;3.93;60.73;102037.34;4946223;28;98267;-82
2024/01/19 10:07:53;;;;;;;26.98;16.50;;;;;;;3.97;60.79;102044.34;4956541;28;98072;-82
2024/01/19 10:10:19;;;;;;;22.95;15.75;;;;;;;4.02;60.71;102045.09;4962085;28;97480;-83
2024/01/19 10:12:46;;;;;;;22.30;13.90;;;;;;;4.06;60.84;102054.75;4963911;28;97221;-84
2024/01/19 10:15:15;;;;;;;22.67;13.95;;;;;;;4.10;60.90;102053.75;4928645;28;99272;-84
2024/01/19 10:17:44;;;;;;;29.45;14.80;;;;;;;4.14;60.79;102048.31;4946526;28;98491;-83
2024/01/19 10:20:14;;;;;;;19.73;14.27;;;;;;;4.18;60.95;102058.88;4938970;28;97826;-83
2024/01/19 10:22:41;;;;;;;17.45;12.85;;;;;;;4.21;60.81;102059.69;4941209;28;97012;-83
2024/01/19 10:25:13;;;;;;;21.55;13.23;;;;;;;4.24;61.05;102059.59;4941190;28;99584;-83
2024/01/19 10:27:41;;;;;;;16.92;13.20;;;;;;;4.29;60.86;102060.34;4943487;28;98134;-82
2024/01/19 10:30:10;;;;;;;23.60;12.68;;;;;;;4.37;60.90;102068.13;4943672;28;98374;-82
2024/01/19 10:32:39;;;;;;;15.60;12.52;;;;;;;4.42;60.96;102068.88;4934454;28;97144;-82
2024/01/19 10:35:20;;;;;;;16.55;11.80;;;;;;;4.46;61.04;102066.13;4942663;28;99882;-82
2024/01/19 10:37:47;;;;;;;18.27;12.35;;;;;;;4.52;61.06;102070.41;4945209;28;98780;-84
2024/01/19 10:40:28;;;;;;;22.35;12.52;;;;;;;4.57;61.06;102070.31;4943022;28;97541;-83
2024/01/19 10:42:56;;;;;;;18.10;12.00;;;;;;;4.61;61.05;102075.50;4944163;28;97190;-83
2024/01/19 10:45:25;;;;;;;18.35;11.77;;;;;;;4.66;61.14;102070.94;4937595;28;98767;-83
2024/01/19 10:47:53;;;;;;;16.00;11.52;;;;;;;4.72;61.06;102070.75;4940022;28;98661;-83
2024/01/19 10:50:25;;;;;;;15.88;10.88;;;;;;;4.77;61.22;102071.50;4945241;28;97260;-83
2024/01/19 10:52:53;;;;;;;23.63;10.60;;;;;;;4.82;61.35;102073.16;4943988;28;97372;-84
2024/01/19 10:55:25;;;;;;;19.17;11.23;;;;;;;4.87;61.32;102073.91;4927309;28;100451;-83
2024/01/19 10:58:04;;;;;;;13.63;10.20;;;;;;;4.90;61.30;102082.69;4938070;28;100549;-83
2024/01/19 11:00:36;;;;;;;13.73;10.18;;;;;;;4.94;61.42;102084.34;4955814;28;96962;-83
2024/01/19 11:03:03;;;;;;;16.38;10.00;;;;;;;4.99;61.35;102089.53;4965549;28;97304;-83
2024/01/19 11:05:32;;;;;;;15.10;10.43;;;;;;;5.02;61.09;102079.69;4959882;28;97134;-83
2024/01/19 11:08:01;;;;;;;16.30;10.15;;;;;;;5.07;61.24;102076.88;4948683;28;100342;-82
2024/01/19 11:10:30;;;;;;;16.80;9.82;;;;;;;5.13;61.27;102075.84;4926462;28;97459;-82
2024/01/19 11:13:01;;;;;;;15.07;9.70;;;;;;;5.19;61.48;102083.63;4948970;28;97570;-83
2024/01/19 11:15:31;;;;;;;14.57;9.57;;;;;;;5.23;61.31;102072.88;4942600;28;99823;-83
2024/01/19 11:17:59;;;;;;;16.08;9.00;;;;;;;5.31;61.34;102076.19;4951594;28;101095;-83
2024/01/19 11:20:28;;;;;;;13.15;8.77;;;;;;;5.40;61.31;102075.06;4963866;28;98206;-83
2024/01/19 11:22:55;;;;;;;12.88;8.65;;;;;;;5.47;61.51;102073.94;4955012;28;98092;-83
2024/01/19 11:25:25;;;;;;;14.13;8.52;;;;;;;5.58;61.35;102074.50;4955837;28;98533;-83
2024/01/19 11:28:04;;;;;;;13.02;8.55;;;;;;;5.66;61.36;102069.78;4944480;28;98136;-82